Date,TemperatureHighF,TemperatureAvgF,TemperatureLowF,DewpointHighF,DewpointAvgF,DewpointLowF,HumidityHigh,HumidityAvg,HumidityLow,PressureMaxIn,PressureMinIn,WindSpeedMaxMPH,WindSpeedAvgMPH,GustSpeedMaxMPH,PrecipitationSumIn
2013-2-1,62,48,36,19,16,14,42,29,18,30.28,30.16,9,4,12,0.00
2013-2-2,64,50,35,19,15,10,44,27,14,30.34,30.23,9,4,12,0.00
2013-2-3,62,53,44,33,18,11,49,26,17,30.25,29.93,10,2,22,0.00
2013-2-4,62,53,46,33,29,25,51,40,29,29.98,29.89,14,6,19,0.00
2013-2-5,66,53,42,34,27,18,64,40,19,30.02,29.89,11,4,13,0.00
2013-2-6,65,58,45,32,29,26,51,34,25,29.93,29.81,13,5,17,0.00
2013-2-7,63,53,38,32,26,18,67,37,18,30.04,29.92,16,5,27,0.00
2013-2-8,66,56,50,26,20,6,38,26,14,30.02,29.75,24,12,30,0.00
2013-2-9,56,48,35,24,16,10,44,29,18,29.93,29.64,33,11,40,0.00
2013-2-10,52,40,30,17,13,7,58,35,18,30.04,29.93,12,3,15,0.00
2013-2-11,57,45,35,28,13,7,65,29,15,30.03,29.86,17,5,23,0.00
2013-2-12,48,39,32,30,17,0,87,49,15,30.21,29.95,18,6,23,0.00
2013-2-13,54,40,27,13,10,7,47,31,16,30.25,30.11,13,5,15,0.00
2013-2-14,59,46,30,17,13,8,42,28,18,30.17,30.03,12,5,14,0.00
2013-2-15,57,45,34,22,16,9,45,33,16,30.37,30.14,13,4,17,0.00
2013-2-16,60,46,31,21,12,4,47,29,11,30.43,30.16,9,3,14,0.00
2013-2-17,67,52,37,11,6,2,26,17,8,30.15,29.77,13,5,21,0.00
2013-2-18,63,52,41,12,7,3,27,17,10,30.01,29.84,13,4,19,0.00
2013-2-19,59,51,46,44,21,3,89,42,11,29.98,29.74,16,7,22,0.11
2013-2-20,58,47,32,40,29,17,90,54,20,29.75,29.51,25,10,36,0.00
2013-2-21,49,37,28,24,22,20,82,57,32,30.02,29.73,15,5,22,0.00
2013-2-22,52,42,30,23,20,16,70,44,25,30.09,29.97,19,4,23,0.00
2013-2-23,58,46,37,21,15,9,51,29,20,30.11,29.78,20,6,20,0.00
2013-2-24,54,43,28,24,18,5,66,39,20,29.92,29.59,36,9,41,0.00
2013-2-25,52,39,27,19,12,7,71,36,16,30.16,29.93,15,7,19,0.00
2013-2-26,63,46,32,16,8,-3,45,24,7,30.05,29.81,22,7,26,0.00
2013-2-27,52,41,28,9,-1,-9,27,18,10,30.27,30.05,17,6,28,0.00
2013-2-28,56,44,31,10,5,-2,35,21,10,30.36,30.25,14,4,18,0.00